Time;durP1;ratioP1;P1;durP2;ratioP2;P2;SDS_P1;SDS_P2;PMS_P1;PMS_P2;Temp;Humidity;BMP_temperature;BMP_pressure;BME280_temperature;BME280_humidity;BME280_pressure;Samples;Min_cycle;Max_cycle;Signal;HPM_P1;HPM_P2
2021/12/21 00:02:25;;;;;;;19.10;7.20;;;;;;;-2.47;93.57;102713.78;4988048;28;20034;-74
2021/12/21 00:04:51;;;;;;;18.00;7.50;;;;;;;-2.46;94.27;102715.56;4986664;28;20138;-74
2021/12/21 00:07:16;;;;;;;18.90;7.15;;;;;;;-2.48;94.28;102708.41;4976515;28;20034;-74
2021/12/21 00:09:41;;;;;;;23.10;7.30;;;;;;;-2.49;94.43;102709.31;4989790;28;20470;-74
2021/12/21 00:12:08;;;;;;;17.20;7.18;;;;;;;-2.51;94.29;102711.97;4984330;28;20105;-74
2021/12/21 00:14:45;;;;;;;23.30;7.95;;;;;;;-2.53;94.79;102713.69;4986013;28;20026;-74
2021/12/21 00:19:49;;;;;;;22.00;7.60;;;;;;;-2.57;94.25;102707.44;4987135;28;20038;-74
2021/12/21 00:24:58;;;;;;;16.30;6.78;;;;;;;-2.61;94.34;102705.63;4989296;28;20521;-73
2021/12/21 00:27:24;;;;;;;18.52;7.28;;;;;;;-2.61;94.53;102696.75;4983646;28;20026;-74
2021/12/21 00:29:50;;;;;;;16.48;7.00;;;;;;;-2.65;94.64;102689.59;4988829;28;20915;-74
2021/12/21 00:32:15;;;;;;;18.63;6.50;;;;;;;-2.65;94.49;102690.47;4989360;28;20033;-75
2021/12/21 00:34:40;;;;;;;16.08;6.95;;;;;;;-2.64;94.42;102694.03;4988982;28;20037;-74
2021/12/21 00:37:06;;;;;;;19.00;6.65;;;;;;;-2.69;94.31;102690.44;4983391;28;20120;-73
2021/12/21 00:39:32;;;;;;;19.38;6.68;;;;;;;-2.71;94.56;102686.84;4986644;28;20018;-75
2021/12/21 00:41:57;;;;;;;13.73;6.40;;;;;;;-2.73;94.22;102686.81;4973730;28;20509;-74
2021/12/21 00:44:23;;;;;;;15.45;6.80;;;;;;;-2.75;93.98;102685.94;4988060;28;20080;-74
2021/12/21 00:46:48;;;;;;;14.30;6.72;;;;;;;-2.77;93.91;102684.09;4977764;28;20027;-73
2021/12/21 00:49:15;;;;;;;19.15;7.85;;;;;;;-2.78;94.34;102685.00;4986999;28;20441;-74
2021/12/21 00:51:43;;;;;;;17.67;7.03;;;;;;;-2.80;94.43;102686.72;4981335;28;20129;-74
2021/12/21 00:54:09;;;;;;;16.77;6.30;;;;;;;-2.80;94.26;102681.41;4988999;28;20114;-74
2021/12/21 00:56:35;;;;;;;21.48;7.88;;;;;;;-2.83;94.27;102682.28;4978573;28;20027;-74
2021/12/21 00:59:00;;;;;;;21.23;7.28;;;;;;;-2.87;94.40;102680.44;4986616;28;20540;-76
2021/12/21 01:01:25;;;;;;;12.57;6.95;;;;;;;-2.86;94.28;102682.22;4985753;28;20030;-75
2021/12/21 01:03:53;;;;;;;17.08;6.95;;;;;;;-2.89;94.33;102675.09;4985194;28;20049;-77
2021/12/21 01:06:25;;;;;;;18.13;7.68;;;;;;;-2.90;94.39;102675.97;4982673;28;20077;-74
2021/12/21 01:11:25;;;;;;;21.30;8.35;;;;;;;-2.96;94.27;102681.22;4978401;28;20062;-75
2021/12/21 01:16:40;;;;;;;19.42;6.95;;;;;;;-2.97;94.77;102686.53;4983583;28;20038;-73
2021/12/21 01:21:39;;;;;;;13.73;6.63;;;;;;;-3.02;94.60;102685.59;4975286;28;20121;-73
2021/12/21 01:26:40;;;;;;;26.27;8.40;;;;;;;-3.05;94.65;102683.75;4985767;28;20084;-76
2021/12/21 01:29:21;;;;;;;18.23;7.68;;;;;;;-3.06;95.16;102675.75;4974277;28;20033;-73
2021/12/21 01:34:40;;;;;;;22.67;7.90;;;;;;;-3.11;94.52;102670.38;4987671;28;20034;-74
2021/12/21 01:42:46;;;;;;;21.20;7.28;;;;;;;-3.14;94.75;102673.00;4984209;28;20073;-77
2021/12/21 01:50:39;;;;;;;20.85;8.15;;;;;;;-3.21;94.58;102666.69;4981437;28;20038;-73
2021/12/21 01:53:05;;;;;;;19.73;8.48;;;;;;;-3.22;94.90;102664.88;4975764;28;20364;-74
2021/12/21 01:55:30;;;;;;;28.02;9.75;;;;;;;-3.19;95.42;102664.06;4986853;28;20030;-75
2021/12/21 01:57:56;;;;;;;31.67;8.27;;;;;;;-3.18;94.71;102665.81;4988047;28;20019;-74
2021/12/21 02:00:21;;;;;;;21.48;8.63;;;;;;;-3.21;94.75;102664.03;4982466;28;20030;-76
2021/12/21 02:02:47;;;;;;;15.43;7.60;;;;;;;-3.25;94.63;102661.31;4986750;28;20447;-77
2021/12/21 02:05:12;;;;;;;15.95;7.22;;;;;;;-3.26;94.44;102664.84;4983946;28;20071;-74
2021/12/21 02:07:39;;;;;;;17.77;8.07;;;;;;;-3.29;94.61;102662.13;4969980;28;20027;-73
2021/12/21 02:10:05;;;;;;;20.20;8.32;;;;;;;-3.32;94.60;102652.34;4986353;28;20745;-76
2021/12/21 02:12:31;;;;;;;16.27;8.32;;;;;;;-3.34;94.91;102644.34;4988327;28;20037;-74
2021/12/21 02:14:58;;;;;;;18.05;8.20;;;;;;;-3.37;94.84;102648.72;4984542;28;20064;-76
2021/12/21 02:22:58;;;;;;;17.30;8.80;;;;;;;-3.37;95.10;102641.63;4979878;28;20375;-76
2021/12/21 02:27:58;;;;;;;20.50;8.43;;;;;;;-3.32;95.68;102649.66;4987388;28;20078;-77
2021/12/21 02:30:24;;;;;;;18.98;8.40;;;;;;;-3.30;95.21;102644.41;4983713;28;20065;-73
2021/12/21 02:32:52;;;;;;;22.27;8.25;;;;;;;-3.31;95.29;102647.91;4978546;28;20065;-77
2021/12/21 02:35:18;;;;;;;26.63;8.93;;;;;;;-3.31;95.34;102655.88;4980550;28;20026;-73
2021/12/21 02:37:43;;;;;;;22.10;8.05;;;;;;;-3.36;95.35;102654.09;4986221;28;20121;-72
2021/12/21 02:40:10;;;;;;;21.45;8.95;;;;;;;-3.35;95.06;102658.53;4984230;28;20110;-72
2021/12/21 02:42:35;;;;;;;15.23;7.65;;;;;;;-3.41;94.64;102650.44;4990437;28;20058;-77
2021/12/21 02:45:00;;;;;;;19.80;9.23;;;;;;;-3.44;94.77;102647.75;4981339;28;20054;-77
2021/12/21 02:47:26;;;;;;;19.58;8.25;;;;;;;-3.47;95.00;102637.06;4987651;28;20480;-75
2021/12/21 02:49:51;;;;;;;24.33;9.00;;;;;;;-3.50;95.02;102641.44;4989979;28;20034;-72
2021/12/21 02:52:16;;;;;;;23.58;9.02;;;;;;;-3.55;95.01;102636.03;4980713;28;20025;-74
2021/12/21 02:54:42;;;;;;;17.63;7.65;;;;;;;-3.55;95.21;102635.16;4982671;28;20041;-73
2021/12/21 02:57:07;;;;;;;23.35;9.18;;;;;;;-3.56;95.32;102636.03;4989622;28;20030;-73
2021/12/21 02:59:33;;;;;;;24.67;9.50;;;;;;;-3.55;95.43;102637.81;4990477;28;20429;-72
2021/12/21 03:01:59;;;;;;;21.80;8.82;;;;;;;-3.55;95.39;102633.38;4988920;28;20031;-77
2021/12/21 03:04:24;;;;;;;25.92;9.20;;;;;;;-3.53;95.55;102633.44;4980504;28;20113;-77
2021/12/21 03:09:39;;;;;;;19.23;7.65;;;;;;;-3.57;95.30;102634.25;4991241;28;20030;-72
2021/12/21 03:14:36;;;;;;;25.75;9.27;;;;;;;-3.57;95.62;102635.13;4981717;28;20034;-76
2021/12/21 03:17:03;;;;;;;21.80;8.68;;;;;;;-3.57;95.41;102632.47;4989814;28;20037;-73
2021/12/21 03:19:28;;;;;;;21.05;9.93;;;;;;;-3.54;95.64;102637.84;4990899;28;20054;-73
2021/12/21 03:21:53;;;;;;;22.13;8.40;;;;;;;-3.56;95.57;102628.06;4984278;28;20517;-77
2021/12/21 03:24:19;;;;;;;20.88;8.00;;;;;;;-3.55;95.48;102625.41;4989136;28;20030;-73
2021/12/21 03:26:45;;;;;;;26.23;9.27;;;;;;;-3.57;95.72;102627.16;4987624;28;20390;-72
2021/12/21 03:29:10;;;;;;;25.58;11.60;;;;;;;-3.56;95.83;102628.06;4984829;28;20609;-74
2021/12/21 03:31:36;;;;;;;27.52;9.10;;;;;;;-3.58;95.64;102627.16;4990498;28;20026;-73
2021/12/21 03:34:01;;;;;;;29.73;10.48;;;;;;;-3.63;95.04;102627.09;4981337;28;20030;-77
2021/12/21 03:36:27;;;;;;;27.25;10.02;;;;;;;-3.65;94.87;102629.69;4978210;28;20031;-78
2021/12/21 03:39:07;;;;;;;22.55;9.95;;;;;;;-3.67;95.04;102627.91;4991097;28;20018;-73
2021/12/21 03:41:35;;;;;;;20.08;7.90;;;;;;;-3.68;94.72;102620.81;4981740;28;20109;-74
2021/12/21 03:44:02;;;;;;;19.50;8.27;;;;;;;-3.71;94.94;102624.31;4987112;28;20038;-77
2021/12/21 03:46:29;;;;;;;27.10;9.55;;;;;;;-3.71;95.08;102626.06;4990292;28;20041;-73
2021/12/21 03:48:54;;;;;;;17.08;8.70;;;;;;;-3.72;95.34;102622.53;4982988;28;20029;-73
2021/12/21 03:51:20;;;;;;;23.33;9.20;;;;;;;-3.74;94.66;102618.94;4983471;28;20046;-73
2021/12/21 03:53:47;;;;;;;20.85;8.18;;;;;;;-3.75;94.80;102622.47;4986668;28;20450;-73
2021/12/21 03:56:33;;;;;;;28.23;9.75;;;;;;;-3.79;94.77;102625.06;4979555;28;20036;-76
2021/12/21 03:58:58;;;;;;;21.02;9.27;;;;;;;-3.81;95.12;102621.50;4985105;28;20448;-78
2021/12/21 04:01:24;;;;;;;22.42;9.50;;;;;;;-3.83;94.64;102618.78;4979704;28;20117;-73
2021/12/21 04:03:49;;;;;;;18.63;8.30;;;;;;;-3.83;94.62;102616.13;4980590;28;20037;-78
2021/12/21 04:06:14;;;;;;;22.42;8.70;;;;;;;-3.87;94.35;102620.53;4978488;28;20399;-73
2021/12/21 04:08:40;;;;;;;19.42;8.27;;;;;;;-3.88;94.39;102615.16;4986871;28;20089;-75
2021/12/21 04:11:05;;;;;;;25.52;8.43;;;;;;;-3.91;94.97;102613.38;4986015;28;20068;-77
2021/12/21 04:13:31;;;;;;;27.38;8.25;;;;;;;-3.91;94.76;102609.81;4989452;28;20525;-78
2021/12/21 04:15:59;;;;;;;20.80;8.88;;;;;;;-3.90;95.38;102612.50;4987387;28;20030;-74
2021/12/21 04:18:25;;;;;;;27.27;9.02;;;;;;;-3.86;95.60;102608.13;4986052;28;20030;-72
2021/12/21 04:20:51;;;;;;;22.60;9.27;;;;;;;-3.87;95.39;102615.22;4988295;28;20387;-77
2021/12/21 04:23:17;;;;;;;20.33;8.45;;;;;;;-3.89;95.04;102608.06;4989509;28;20030;-77
2021/12/21 04:25:42;;;;;;;24.25;9.57;;;;;;;-3.91;95.17;102616.03;4974515;28;20308;-78
2021/12/21 04:28:08;;;;;;;25.30;9.95;;;;;;;-3.91;95.60;102618.69;4989487;28;20030;-72
2021/12/21 04:30:34;;;;;;;20.80;9.13;;;;;;;-3.91;95.71;102608.06;4987522;28;20033;-78
2021/12/21 04:32:59;;;;;;;23.70;9.60;;;;;;;-3.93;95.42;102614.19;4981800;28;20037;-75
2021/12/21 04:35:24;;;;;;;20.55;9.10;;;;;;;-3.96;94.93;102614.19;4981981;28;20055;-72
2021/12/21 04:38:11;;;;;;;15.88;8.40;;;;;;;-3.99;94.89;102617.66;4988190;28;20031;-76
2021/12/21 04:40:44;;;;;;;24.50;9.13;;;;;;;-4.05;95.30;102606.94;4980511;28;20019;-77
2021/12/21 04:43:09;;;;;;;20.90;8.80;;;;;;;-4.01;95.35;102607.88;4989253;28;20111;-78
2021/12/21 04:45:35;;;;;;;25.42;9.52;;;;;;;-4.00;95.37;102602.59;4974952;28;20551;-72
2021/12/21 04:48:00;;;;;;;22.45;8.85;;;;;;;-4.01;95.11;102599.88;4977696;28;20164;-78
2021/12/21 04:50:26;;;;;;;25.65;9.45;;;;;;;-4.03;95.15;102601.66;4984190;28;20041;-75
2021/12/21 04:52:51;;;;;;;22.70;8.63;;;;;;;-4.06;95.21;102609.56;4989283;28;20097;-78
2021/12/21 04:55:17;;;;;;;25.52;10.25;;;;;;;-4.09;95.16;102605.09;4977174;28;20034;-78
2021/12/21 04:57:43;;;;;;;23.08;9.95;;;;;;;-4.07;95.27;102605.13;4987012;28;20019;-73
2021/12/21 05:00:10;;;;;;;25.38;9.32;;;;;;;-4.08;95.55;102600.69;4982445;28;20053;-78
2021/12/21 05:02:35;;;;;;;27.92;9.43;;;;;;;-4.12;95.48;102603.28;4981799;28;20061;-78
2021/12/21 05:05:01;;;;;;;25.15;9.63;;;;;;;-4.11;95.53;102601.50;4984539;28;20051;-73
2021/12/21 05:07:29;;;;;;;23.67;8.50;;;;;;;-4.12;94.93;102597.97;4980332;28;20038;-78
2021/12/21 05:10:00;;;;;;;26.25;10.13;;;;;;;-4.12;95.56;102599.72;4988437;28;20026;-73
2021/12/21 05:12:25;;;;;;;20.52;9.07;;;;;;;-4.13;95.44;102605.91;4980957;28;20092;-76
2021/12/21 05:14:51;;;;;;;26.15;9.18;;;;;;;-4.14;95.23;102604.13;4988784;28;20434;-79
2021/12/21 05:17:17;;;;;;;22.50;10.02;;;;;;;-4.13;95.68;102603.25;4981872;28;20026;-74
2021/12/21 05:19:42;;;;;;;24.83;10.38;;;;;;;-4.12;95.81;102602.38;4985485;28;20030;-78
2021/12/21 05:22:07;;;;;;;27.52;9.95;;;;;;;-4.11;95.68;102607.72;4970482;28;20495;-72
2021/12/21 05:24:33;;;;;;;30.35;11.48;;;;;;;-4.09;95.96;102605.09;4985052;28;20045;-76
2021/12/21 05:26:58;;;;;;;22.73;9.13;;;;;;;-4.08;95.86;102600.69;4988333;28;20453;-73
2021/12/21 05:29:24;;;;;;;25.13;8.63;;;;;;;-4.11;95.32;102609.47;4984238;28;20526;-72
2021/12/21 05:31:50;;;;;;;24.45;9.13;;;;;;;-4.15;95.32;102602.31;4974756;28;20034;-76
2021/12/21 05:34:16;;;;;;;27.48;8.88;;;;;;;-4.17;95.34;102612.94;4982840;28;20872;-73
2021/12/21 05:36:41;;;;;;;27.00;9.93;;;;;;;-4.20;95.23;102607.56;4979222;28;20030;-78
2021/12/21 05:39:15;;;;;;;23.13;9.68;;;;;;;-4.22;95.55;102611.09;4986794;28;20037;-73
2021/12/21 05:41:49;;;;;;;27.65;10.02;;;;;;;-4.23;95.07;102606.63;4986207;28;20398;-78
2021/12/21 05:44:15;;;;;;;24.73;9.32;;;;;;;-4.24;94.80;102602.19;4982174;28;20848;-72
2021/12/21 05:46:41;;;;;;;21.63;8.85;;;;;;;-4.28;94.92;102608.34;4986196;28;20386;-78
2021/12/21 05:49:07;;;;;;;21.67;9.93;;;;;;;-4.28;95.26;102616.31;4982398;28;20022;-79
2021/12/21 05:51:32;;;;;;;25.70;10.73;;;;;;;-4.32;95.16;102617.13;4970113;28;20033;-77
2021/12/21 05:53:58;;;;;;;27.88;9.98;;;;;;;-4.33;95.21;102615.31;4986748;28;20120;-72
2021/12/21 05:56:23;;;;;;;27.20;9.40;;;;;;;-4.34;95.28;102616.16;4987902;28;20045;-78
2021/12/21 05:58:49;;;;;;;19.15;9.85;;;;;;;-4.36;95.41;102617.03;4976198;28;20026;-73
2021/12/21 06:01:14;;;;;;;22.27;9.57;;;;;;;-4.33;95.58;102612.66;4978521;28;20084;-77
2021/12/21 06:03:40;;;;;;;26.63;8.73;;;;;;;-4.35;95.20;102604.66;4982450;28;20088;-72
2021/12/21 06:06:13;;;;;;;25.77;8.65;;;;;;;-4.37;94.91;102609.06;4984210;28;20050;-78
2021/12/21 06:08:38;;;;;;;;;;;;;;;-4.36;94.90;102614.38;4988109;28;20022;-72
2021/12/21 06:11:06;;;;;;;18.35;8.68;;;;;;;-4.38;95.20;102621.44;4982289;28;19920;-73
2021/12/21 06:14:01;;;;;;;23.55;9.13;;;;;;;-4.39;95.37;102610.78;4984749;28;20076;-73
2021/12/21 06:25:22;;;;;;;22.40;9.18;;;;;;;-4.44;94.88;102615.13;4972249;28;20130;-78
2021/12/21 06:27:27;;;;;;;24.85;11.18;;;;;;;-4.47;94.83;102602.69;4983820;28;20041;-73
2021/12/21 06:29:52;;;;;;;19.60;8.18;;;;;;;-4.51;94.72;102610.59;4987569;28;20022;-74
2021/12/21 06:32:18;;;;;;;30.30;9.60;;;;;;;-4.56;94.72;102613.16;4986625;28;20483;-79
2021/12/21 06:34:44;;;;;;;24.20;8.77;;;;;;;-4.62;94.33;102605.06;4980838;28;20474;-77
2021/12/21 06:37:09;;;;;;;22.65;8.50;;;;;;;-4.65;94.44;102607.69;4981126;28;20073;-72
2021/12/21 06:39:35;;;;;;;25.45;9.77;;;;;;;-4.66;94.53;102609.44;4987500;28;20034;-78
2021/12/21 06:42:02;;;;;;;24.33;8.80;;;;;;;-4.66;94.75;102604.13;4983696;28;20030;-73
2021/12/21 06:44:27;;;;;;;21.23;9.00;;;;;;;-4.64;95.26;102604.16;4987260;28;20041;-72
2021/12/21 06:51:08;;;;;;;22.25;9.40;;;;;;;-4.63;95.44;102612.13;4986320;28;20033;-78
2021/12/21 06:52:35;;;;;;;25.17;8.68;;;;;;;-4.64;95.17;102607.69;4974544;28;20448;-74
2021/12/21 06:55:00;;;;;;;27.77;8.90;;;;;;;-4.65;94.85;102611.22;4977965;28;20446;-75
2021/12/21 06:57:26;;;;;;;19.70;8.50;;;;;;;-4.68;94.26;102610.25;4978908;28;20066;-75
2021/12/21 06:59:52;;;;;;;23.10;8.73;;;;;;;-4.72;94.65;102611.06;4982429;28;20029;-72
2021/12/21 07:02:17;;;;;;;22.85;8.40;;;;;;;-4.76;94.43;102612.75;4982546;28;20102;-73
2021/12/21 07:04:42;;;;;;;21.20;10.25;;;;;;;-4.76;94.82;102611.88;4975576;28;20018;-76
2021/12/21 07:07:10;;;;;;;23.98;9.13;;;;;;;-4.75;95.03;102613.69;4977171;28;20030;-72
2021/12/21 07:09:41;;;;;;;20.95;8.73;;;;;;;-4.74;95.11;102613.69;4985495;28;20034;-78
2021/12/21 07:12:31;;;;;;;23.83;8.95;;;;;;;-4.75;94.81;102609.25;4980543;28;20022;-78
2021/12/21 07:20:25;;;;;;;29.52;10.13;;;;;;;-4.77;94.44;102620.72;4985276;28;20076;-73
2021/12/21 07:22:50;;;;;;;21.02;9.55;;;;;;;-4.80;94.15;102625.94;4985396;28;20117;-72
2021/12/21 07:25:16;;;;;;;20.10;8.68;;;;;;;-4.83;94.19;102624.16;4983010;28;20108;-72
2021/12/21 07:27:41;;;;;;;25.63;9.80;;;;;;;-4.84;94.10;102634.75;4989437;28;20046;-72
2021/12/21 07:30:07;;;;;;;30.83;10.02;;;;;;;-4.83;94.59;102628.56;4988013;28;20116;-73
2021/12/21 07:32:33;;;;;;;23.95;9.13;;;;;;;-4.82;94.90;102633.00;4983925;28;20117;-78
2021/12/21 07:34:59;;;;;;;22.63;9.23;;;;;;;-4.81;94.59;102629.47;4986090;28;20030;-77
2021/12/21 07:37:25;;;;;;;21.73;8.40;;;;;;;-4.80;94.83;102631.25;4981545;28;20045;-78
2021/12/21 07:39:51;;;;;;;24.02;9.48;;;;;;;-4.82;95.00;102623.28;4972503;28;20053;-73
2021/12/21 07:42:17;;;;;;;20.73;10.27;;;;;;;-4.81;95.00;102635.66;4988880;28;20081;-72
2021/12/21 07:44:42;;;;;;;20.88;9.30;;;;;;;-4.83;94.40;102629.44;4987866;28;20030;-79
2021/12/21 07:47:07;;;;;;;29.77;10.73;;;;;;;-4.87;94.24;102627.59;4989605;28;20062;-76
2021/12/21 07:49:33;;;;;;;21.38;9.25;;;;;;;-4.87;94.33;102631.16;4976237;28;20052;-78
2021/12/21 07:51:58;;;;;;;18.92;7.85;;;;;;;-4.85;94.55;102640.88;4986228;28;20486;-78
2021/12/21 07:54:24;;;;;;;20.50;8.50;;;;;;;-4.88;94.23;102641.75;4988677;28;20058;-78
2021/12/21 07:56:49;;;;;;;26.38;9.82;;;;;;;-4.92;94.26;102639.88;4989548;28;20149;-72
2021/12/21 07:59:14;;;;;;;25.92;9.18;;;;;;;-4.95;94.18;102632.75;4983546;28;20553;-77
2021/12/21 08:01:40;;;;;;;21.77;9.35;;;;;;;-4.93;94.52;102641.66;4985094;28;20181;-73
2021/12/21 08:04:09;;;;;;;23.25;9.77;;;;;;;-4.90;95.08;102643.44;4976954;28;20125;-73
2021/12/21 08:06:35;;;;;;;20.75;9.05;;;;;;;-4.85;94.94;102643.53;4983294;28;20050;-72
2021/12/21 08:09:04;;;;;;;25.45;10.23;;;;;;;-4.85;94.37;102643.53;4982334;28;20034;-78
2021/12/21 08:14:02;;;;;;;29.33;10.20;;;;;;;-4.82;94.46;102638.31;4986078;28;20038;-72
2021/12/21 08:16:28;;;;;;;20.75;9.80;;;;;;;-4.80;94.54;102648.09;4979664;28;20037;-78
2021/12/21 08:18:53;;;;;;;33.53;10.88;;;;;;;-4.78;95.01;102642.81;4980109;28;20049;-72
2021/12/21 08:21:19;;;;;;;28.75;9.70;;;;;;;-4.78;95.16;102633.09;4983259;28;20030;-78
2021/12/21 08:23:45;;;;;;;24.38;10.02;;;;;;;-4.68;95.02;102643.00;4979752;28;20029;-75
2021/12/21 08:26:11;;;;;;;30.05;11.88;;;;;;;-4.64;95.40;102643.97;4987295;28;20029;-73
2021/12/21 08:28:37;;;;;;;26.58;11.38;;;;;;;-4.63;95.40;102630.72;4975741;28;20447;-77
2021/12/21 08:31:02;;;;;;;26.55;10.68;;;;;;;-4.58;95.59;102645.84;4983024;28;20113;-72
2021/12/21 08:33:28;;;;;;;28.85;11.77;;;;;;;-4.56;95.31;102639.72;4988813;28;20042;-77
2021/12/21 08:35:53;;;;;;;30.38;11.32;;;;;;;-4.53;95.79;102637.09;4984711;28;20088;-77
2021/12/21 08:38:19;;;;;;;23.10;10.82;;;;;;;-4.53;95.05;102645.06;4984793;28;20072;-73
2021/12/21 08:40:49;;;;;;;27.40;10.63;;;;;;;-4.49;95.18;102644.25;4984872;28;20030;-73
2021/12/21 08:43:27;;;;;;;28.17;10.88;;;;;;;-4.44;95.16;102647.00;4988899;28;20036;-73
2021/12/21 08:45:53;;;;;;;27.90;12.13;;;;;;;-4.42;95.73;102647.94;4987643;28;20026;-76
2021/12/21 08:48:19;;;;;;;28.48;11.13;;;;;;;-4.38;95.44;102649.78;4985372;28;20666;-77
2021/12/21 08:50:46;;;;;;;27.20;11.00;;;;;;;-4.35;95.79;102652.47;4979212;28;20038;-74
2021/12/21 08:53:13;;;;;;;31.85;11.60;;;;;;;-4.34;95.89;102648.94;4986380;28;20041;-73
2021/12/21 08:55:40;;;;;;;30.35;12.20;;;;;;;-4.26;96.21;102665.03;4983008;28;20026;-73
2021/12/21 08:58:05;;;;;;;24.83;11.00;;;;;;;-4.26;95.72;102655.28;4988569;28;20023;-75
2021/12/21 09:00:31;;;;;;;25.75;11.13;;;;;;;-4.24;95.67;102650.03;4987191;28;20062;-75
2021/12/21 09:02:57;;;;;;;30.50;13.38;;;;;;;-4.15;96.09;102660.78;4986362;28;20022;-77
2021/12/21 09:05:26;;;;;;;31.85;12.68;;;;;;;-4.11;96.29;102657.31;4997868;28;20105;-77
2021/12/21 09:07:52;;;;;;;29.50;12.70;;;;;;;-4.03;96.42;102660.13;4987268;28;20030;-73
2021/12/21 09:10:20;;;;;;;41.42;13.88;;;;;;;-3.96;96.61;102667.34;4981524;28;20446;-75
2021/12/21 09:12:47;;;;;;;29.80;14.63;;;;;;;-3.88;96.84;102663.03;4985700;28;20034;-75
2021/12/21 09:15:13;;;;;;;50.13;14.13;;;;;;;-3.79;96.85;102656.97;4984128;28;20031;-76
2021/12/21 09:17:40;;;;;;;36.30;15.23;;;;;;;-3.72;97.19;102650.88;4984069;28;20037;-74
2021/12/21 09:20:07;;;;;;;34.30;16.27;;;;;;;-3.63;96.89;102657.22;4982483;28;20061;-74
2021/12/21 09:22:32;;;;;;;33.55;14.68;;;;;;;-3.54;97.26;102659.13;4977768;28;20486;-74
2021/12/21 09:24:59;;;;;;;53.15;18.38;;;;;;;-3.48;97.32;102661.88;4983199;28;20030;-75
2021/12/21 09:27:27;;;;;;;40.60;16.98;;;;;;;-3.39;97.29;102662.00;4984461;28;20552;-76
2021/12/21 09:29:52;;;;;;;32.03;15.38;;;;;;;-3.32;97.42;102649.66;4983679;28;20434;-75
2021/12/21 09:32:18;;;;;;;32.58;16.20;;;;;;;-3.20;97.38;102656.94;4986263;28;20109;-74
2021/12/21 09:34:45;;;;;;;32.97;14.77;;;;;;;-3.12;97.32;102652.63;4986092;28;20022;-74
2021/12/21 09:37:17;;;;;;;41.80;15.02;;;;;;;-3.01;97.32;102650.09;4981143;28;20026;-74
2021/12/21 09:39:50;;;;;;;39.80;17.33;;;;;;;-2.92;97.26;102645.78;4978782;28;20165;-73
2021/12/21 09:42:19;;;;;;;42.45;17.15;;;;;;;-2.85;97.29;102652.94;4979805;28;20038;-72
2021/12/21 09:44:44;;;;;;;37.58;15.88;;;;;;;-2.78;97.20;102643.28;4986251;28;20034;-73
2021/12/21 09:47:11;;;;;;;33.88;16.42;;;;;;;-2.71;97.16;102650.44;4985331;28;20065;-72
2021/12/21 09:49:37;;;;;;;36.92;14.77;;;;;;;-2.65;96.91;102637.22;4982531;28;21051;-72
2021/12/21 09:52:05;;;;;;;35.88;15.93;;;;;;;-2.61;97.04;102635.47;4986065;28;20033;-75
2021/12/21 09:54:32;;;;;;;39.45;17.38;;;;;;;-2.55;97.09;102643.53;4988053;28;20063;-73
2021/12/21 09:56:58;;;;;;;37.30;15.77;;;;;;;-2.49;96.87;102632.03;4982631;28;20026;-74
2021/12/21 09:59:25;;;;;;;32.92;14.95;;;;;;;-2.47;96.75;102639.19;4981362;28;20061;-72
2021/12/21 10:01:50;;;;;;;38.00;16.88;;;;;;;-2.41;96.83;102644.56;4986489;28;20022;-73
2021/12/21 10:04:17;;;;;;;36.50;15.68;;;;;;;-2.38;96.73;102641.00;4985838;28;20543;-73
2021/12/21 10:06:47;;;;;;;32.10;16.73;;;;;;;-2.32;97.04;102634.00;4985145;28;20046;-73
2021/12/21 10:09:14;;;;;;;39.60;16.83;;;;;;;-2.26;96.84;102641.16;4986855;28;20073;-73
2021/12/21 10:11:44;;;;;;;39.75;17.17;;;;;;;-2.22;96.56;102640.28;4976612;28;20026;-73
2021/12/21 10:14:10;;;;;;;37.88;16.38;;;;;;;-2.18;96.91;102639.44;4986516;28;20793;-72
2021/12/21 10:16:36;;;;;;;34.63;16.10;;;;;;;-2.13;96.70;102644.81;4987358;28;20033;-74
2021/12/21 10:19:02;;;;;;;34.55;14.95;;;;;;;-2.08;96.45;102641.31;4987242;28;20379;-72
2021/12/21 10:21:27;;;;;;;31.85;15.45;;;;;;;-2.00;96.65;102641.38;4981493;28;20027;-74
2021/12/21 10:23:54;;;;;;;41.40;16.95;;;;;;;-1.91;96.84;102632.53;4985388;28;20088;-74
2021/12/21 10:26:26;;;;;;;44.10;18.08;;;;;;;-1.82;97.08;102622.84;4986892;28;20485;-73
2021/12/21 10:29:05;;;;;;;34.10;16.52;;;;;;;-1.71;97.03;102622.03;4979363;28;20173;-72
2021/12/21 10:31:36;;;;;;;34.35;15.68;;;;;;;-1.59;96.51;102625.66;4982451;28;20026;-73
2021/12/21 10:34:04;;;;;;;33.13;17.00;;;;;;;-1.46;97.12;102607.06;4984980;28;20030;-74
2021/12/21 10:36:31;;;;;;;36.20;17.48;;;;;;;-1.37;96.63;102613.34;4984832;28;20026;-73
2021/12/21 10:39:02;;;;;;;29.02;15.60;;;;;;;-1.32;95.91;102616.91;4980288;28;20025;-72
2021/12/21 10:41:29;;;;;;;35.75;17.15;;;;;;;-1.23;96.07;102621.41;4984761;28;20034;-73
2021/12/21 10:44:01;;;;;;;30.65;15.90;;;;;;;-1.15;95.35;102619.69;4987870;28;20623;-74
2021/12/21 10:46:28;;;;;;;39.78;19.73;;;;;;;-0.97;97.25;102620.66;4986861;28;20509;-74
2021/12/21 10:49:14;;;;;;;47.67;20.05;;;;;;;-0.75;97.89;102614.47;4984501;28;20458;-74
2021/12/21 10:52:04;;;;;;;47.83;19.95;;;;;;;-0.63;96.68;102618.97;4978206;28;20030;-74
2021/12/21 10:54:35;;;;;;;36.63;18.38;;;;;;;-0.63;95.25;102619.84;4984228;28;20054;-72
2021/12/21 10:57:05;;;;;;;62.83;23.45;;;;;;;-0.50;97.64;102612.75;4982733;28;20557;-73
2021/12/21 10:59:35;;;;;;;58.72;23.92;;;;;;;-0.25;98.14;102613.69;4985294;28;20112;-74
2021/12/21 11:02:17;;;;;;;48.92;22.17;;;;;;;-0.16;96.71;102610.13;4986151;28;20040;-72
2021/12/21 11:04:47;;;;;;;33.43;17.33;;;;;;;-0.10;96.59;102610.09;4985693;28;20113;-71
2021/12/21 11:07:38;;;;;;;36.70;14.88;;;;;;;-0.10;93.34;102605.66;4977966;28;20649;-74
2021/12/21 11:10:13;;;;;;;35.22;15.93;;;;;;;0.00;94.48;102595.88;4988788;28;20034;-74
2021/12/21 11:12:47;;;;;;;29.27;14.50;;;;;;;0.10;93.73;102594.06;4985951;28;20030;-73
2021/12/21 11:15:15;;;;;;;33.03;14.10;;;;;;;0.13;92.37;102594.03;4986239;28;20077;-74
2021/12/21 11:17:41;;;;;;;27.85;14.32;;;;;;;0.18;92.32;102595.81;4978639;28;20364;-74
2021/12/21 11:20:08;;;;;;;25.10;14.13;;;;;;;0.31;90.88;102604.72;4976951;28;20058;-74
2021/12/21 11:22:35;;;;;;;28.70;13.60;;;;;;;0.37;91.66;102601.16;4978822;28;20034;-74
2021/12/21 11:25:01;;;;;;;37.00;15.65;;;;;;;0.53;94.04;102592.19;4986179;28;20031;-74
2021/12/21 11:27:28;;;;;;;34.88;17.75;;;;;;;0.73;94.47;102593.00;4989808;28;20034;-73
2021/12/21 11:29:58;;;;;;;34.85;15.95;;;;;;;0.89;93.71;102576.91;4982409;28;20525;-72
2021/12/21 11:32:25;;;;;;;28.42;13.85;;;;;;;0.95;92.83;102575.06;4985981;28;20088;-74
2021/12/21 11:37:20;;;;;;;31.73;14.82;;;;;;;1.11;94.64;102556.22;4988857;28;20475;-74
2021/12/21 11:38:06;;;;;;;40.40;18.30;;;;;;;1.36;96.22;102543.56;4984438;28;20037;-74
2021/12/21 11:40:34;;;;;;;25.63;14.82;;;;;;;1.38;93.74;102541.75;5001554;28;20034;-73
2021/12/21 11:43:21;;;;;;;26.42;15.02;;;;;;;1.50;93.78;102541.69;4987376;28;20038;-74
2021/12/21 11:46:05;;;;;;;22.25;13.82;;;;;;;1.50;91.64;102542.56;4987772;28;20026;-74
2021/12/21 11:48:55;;;;;;;23.45;12.23;;;;;;;1.53;90.54;102545.19;4988609;28;20037;-74
2021/12/21 11:51:25;;;;;;;21.30;13.20;;;;;;;1.59;92.15;102552.34;4986663;28;20411;-74
2021/12/21 11:53:52;;;;;;;24.17;11.25;;;;;;;1.59;87.60;102551.44;4989343;28;20041;-72
2021/12/21 11:56:21;;;;;;;18.50;9.52;;;;;;;1.53;84.15;102541.63;4977834;28;20033;-74
2021/12/21 11:58:50;;;;;;;25.13;11.40;;;;;;;1.65;91.81;102549.59;4983248;28;20030;-74
2021/12/21 12:01:19;;;;;;;18.48;9.63;;;;;;;1.79;86.45;102552.16;4981627;28;20022;-74
2021/12/21 12:04:03;;;;;;;21.90;11.73;;;;;;;1.85;90.65;102544.06;4979586;28;20022;-73
2021/12/21 12:06:52;;;;;;;19.67;9.15;;;;;;;1.83;87.08;102545.88;4987845;28;20054;-73
2021/12/21 12:09:33;;;;;;;17.85;10.05;;;;;;;1.85;88.48;102540.47;4984321;28;20076;-72
2021/12/21 12:12:07;;;;;;;20.13;9.32;;;;;;;1.98;86.59;102539.47;4985663;28;20015;-75
2021/12/21 12:14:35;;;;;;;15.80;9.20;;;;;;;2.01;85.78;102529.59;4980623;28;20367;-74
2021/12/21 12:17:02;;;;;;;14.52;8.05;;;;;;;2.04;84.10;102524.19;4988627;28;20080;-73
2021/12/21 12:19:36;;;;;;;19.02;9.35;;;;;;;2.06;86.65;102526.88;4987302;28;20099;-74
2021/12/21 12:22:14;;;;;;;14.43;8.13;;;;;;;2.01;83.62;102523.34;4980610;28;20065;-74